Historyczne dane pomiarowe

Dodano dane terminowe – wersja testowa.

Dane z okresu 1951-2019

Wersja bazy: 1.34 [2019-03-16, lista zmian], aktualizacja planowana na 2019-04-15

Dane meteo z obszaru Polski uzyskane na podstawie danych udostępnionych przez Instytut Meteorologii i Gospodarki Wodnej – Państwowy Instytut Badawczy.

 

Wybierz Datę:    

       

TemperaturaWilgotnośćWiatrCiśnienieOpadyŚniegCzas trwania zjawisk
 Stacja t tx tn tng RH VA  wxwx mslp ppp RRR   cm mm wxwxwxwxwxwxwx
1987-08-14 11.8 18.2 5.0 1.5 91.0- 6.7 3.7---- 5.6------------
1987-08-13 12.6 19.9 3.4 1.8 79.5- 3.3 3.3---- 0.0------------
1987-08-12 11.8 16.5 7.5 3.5 84.5- 3.7 2.7---- 2.0------------
1987-08-11 12.2 17.4 10.0 5.8 86.8- 3.7 4.3---- 0.0------------
1987-08-10 14.6 18.4 12.4 10.8 84.3- 5.0 4.3---- 0.4------------
1987-08-09 16.8 23.3 10.4 5.6 72.5- 4.3 2.3---- 3.4------------
1987-08-08 14.1 20.2 8.2 4.8 76.5- 3.0 3.0---- 0.0------------
1987-08-07 9.9 15.4 5.4 1.0 88.8- 6.7 3.3---- 6.3------------
1987-08-06 10.4 15.0 7.8 5.0 86.5- 3.0 4.0---- 1.2------------
1987-08-05 11.9 17.2 6.6 3.5 86.8- 4.3 3.7---- 0.9------------
1987-08-04 15.0 18.0 14.1 9.9 87.0- 5.0 4.0---- 5.7------------
1987-08-03 14.2 19.5 9.8 7.0 83.5- 5.3 2.3---- 0.0------------
1987-08-02 14.4 19.0 11.2 10.4 78.8- 6.0 4.0---- 7.1------------
1987-08-01 15.0 20.6 10.3 6.3 88.5- 7.3 3.0---- 1.6------------
1987-07-31 15.5 21.0 12.8 11.9 91.0- 6.0 3.7---- 3.8------------
1987-07-30 18.1 23.5 12.4 6.1 80.5- 2.0 2.7---- 4.6------------
1987-07-29 14.4 19.2 9.4 7.2 82.5- 7.0 3.0---- 0.0------------
1987-07-28 12.6 15.6 11.3 10.7 92.0- 6.0 5.0---- 1.0------------
1987-07-27 11.7 16.5 6.4 5.1 83.3- 6.0 5.0---- 1.1------------
1987-07-26 12.0 17.6 11.2 10.8 96.3- 6.3 1.7---- 5.1------------
1987-07-25 18.4 23.5 12.5 9.8 87.8- 4.0 3.0---- 4.0------------
1987-07-24 20.2 25.9 16.0 14.0 85.8- 5.7 3.3---- 2.1------------
1987-07-23 20.2 27.2 10.0 8.5 81.8- 2.3 2.0---- 0.3------------
1987-07-22 18.4 23.0 15.0 11.2 87.3- 4.3 1.7---- 0.0------------
1987-07-21 18.0 24.6 10.7 7.6 84.8- 2.7 3.0---- 28.2------------
1987-07-20 18.7 22.1 16.6 14.5 88.0- 4.7 3.3---- 0.0------------
1987-07-19 21.1 25.6 19.0 18.5 87.0- 2.7 3.7---- 5.0------------
1987-07-18 23.8 28.9 17.0 13.6 81.5- 2.3 2.3---- 0.0------------
1987-07-17 22.1 29.5 17.0 14.4 81.0- 5.0 4.7---- 6.2------------
1987-07-16 19.6 27.5 11.6 7.6 73.3- 2.0 2.7---- 1.9------------
1987-07-15 17.0 23.4 7.1 3.5 69.5- 0.3 3.7---- 0.0------------
1987-07-14 15.2 20.8 6.4 3.5 77.8- 1.3 1.7---- 0.0------------
1987-07-13 17.6 21.7 13.0 10.7 78.8- 3.7 3.7---- 0.0------------
1987-07-12 19.6 27.2 11.2 10.2 78.3- 5.3 4.7---- 9.6------------
1987-07-11 16.3 23.3 6.4 3.9 75.5- 1.7 4.0---- 0.0------------
1987-07-10 13.9 18.4 9.5 8.0 76.0- 3.3 4.7---- 0.0------------
1987-07-09 17.1 24.0 13.8 13.5 95.3- 8.0 3.7---- 14.5------------
1987-07-08 21.6 28.1 13.8 7.7 66.0- 1.3 3.3---- 0.0------------
1987-07-07 19.2 26.8 7.2 3.5 60.8- 0.0 2.3---- 0.0------------
1987-07-06 18.0 24.7 9.1 4.1 68.0- 0.7 2.3---- 0.0------------
1987-07-05 16.0 20.0 9.8 6.0 76.5- 5.3 5.3---- 0.2------------
1987-07-04 19.0 23.3 12.0 8.5 69.5- 2.3 3.3---- 0.0------------
1987-07-03 18.6 22.3 15.4 15.0 78.3- 5.0 2.7---- 0.0------------
1987-07-02 17.7 26.6 16.1 16.0 88.3- 7.7 2.3---- 0.0------------
1987-07-01 24.6 29.3 17.6 14.0 73.5- 0.7 3.7---- 0.0------------
1987-06-30 23.8 29.7 14.2 11.5 76.8- 0.0 2.0---- 0.0------------
1987-06-29 21.0 25.6 13.9 10.8 78.5- 2.3 2.7---- 0.0------------
1987-06-28 18.2 24.0 9.2 8.2 79.5- 6.0 3.7---- 0.0------------
1987-06-27 16.4 21.2 15.0 9.5 86.3- 6.3 3.0---- 0.2------------
1987-06-26 16.8 23.7 8.6 4.1 71.8- 4.0 3.3---- 12.6------------
1987-06-25 14.2 17.6 13.0 11.0 76.8- 3.0 6.0---- 0.0------------
1987-06-24 16.0 20.3 11.4 9.6 73.8- 5.3 3.7---- 3.2------------
1987-06-23 15.8 20.2 11.8 11.3 78.8- 5.0 2.3---- 0.5------------
1987-06-22 15.1 20.7 10.0 7.5 87.0- 6.0 4.0---- 7.2------------
1987-06-21 16.6 22.7 7.5 4.5 71.0- 4.3 2.3---- 0.0------------
1987-06-20 14.8 21.1 7.1 3.7 71.5- 5.3 3.0---- 0.0------------
1987-06-19 12.4 17.5 7.9 6.5 71.3- 3.7 3.7---- 0.1------------
1987-06-18 10.0 14.4 5.0 2.5 85.8- 4.7 4.0---- 0.6------------
1987-06-17 11.6 15.5 7.7 5.9 74.8- 4.7 4.7---- 0.0------------
1987-06-16 13.3 23.2 10.2 6.5 89.3- 6.0 6.0---- 2.3------------
488.1 ms

 

Źródłem pochodzenia danych jest Instytut Meteorologii i Gospodarki Wodnej – Państwowy Instytut Badawczy. Dane Instytutu Meteorologii i Gospodarki Wodnej – Państwowego Instytutu Badawczego zostały przetworzone.

Dane źródłowe można odnaleźć na stronie https://dane.imgw.pl